Terminal Aerodrome Forecast
Issued by NWS Sioux Falls, SD

Home | Current Version | Previous Version | Text Only | Print | Product List | Glossary On
Versions: 1 2 3 4 5 6 7 8 9 10 11 12 13 14
987
FTUS43 KFSD 281122
TAFFSD
TAF
KFSD 281122Z 2812/2912 35004KT P6SM FEW050 BKN170
     FM281600 02008KT P6SM SCT045
     FM281800 02008KT P6SM SCT035 BKN100
     FM290200 05007KT P6SM SCT100 BKN200=

USA.gov is the U.S. government's official web portal to all federal, state and local government web resources and services.